sensor_id;sensor_type;location;lat;lon;timestamp;P1;durP1;ratioP1;P2;durP2;ratioP2
48935;SDS011;34745;52.276;10.528;2022-11-18T00:00:55;23.43;;;15.83;;
48935;SDS011;34745;52.276;10.528;2022-11-18T00:03:22;22.30;;;15.70;;
48935;SDS011;34745;52.276;10.528;2022-11-18T00:05:52;25.10;;;15.43;;
48935;SDS011;34745;52.276;10.528;2022-11-18T00:08:20;20.47;;;14.63;;
48935;SDS011;34745;52.276;10.528;2022-11-18T00:10:48;21.00;;;15.73;;
48935;SDS011;34745;52.276;10.528;2022-11-18T00:13:16;23.10;;;15.37;;
48935;SDS011;34745;52.276;10.528;2022-11-18T00:16:02;21.43;;;15.77;;
48935;SDS011;34745;52.276;10.528;2022-11-18T00:18:31;19.80;;;14.93;;
48935;SDS011;34745;52.276;10.528;2022-11-18T00:20:59;20.17;;;15.07;;
48935;SDS011;34745;52.276;10.528;2022-11-18T00:23:27;22.17;;;15.40;;
48935;SDS011;34745;52.276;10.528;2022-11-18T00:25:58;20.20;;;15.53;;
48935;SDS011;34745;52.276;10.528;2022-11-18T00:28:27;31.73;;;20.43;;
48935;SDS011;34745;52.276;10.528;2022-11-18T00:30:59;23.73;;;16.20;;
48935;SDS011;34745;52.276;10.528;2022-11-18T00:33:26;22.13;;;15.70;;
48935;SDS011;34745;52.276;10.528;2022-11-18T00:35:54;21.50;;;15.13;;
48935;SDS011;34745;52.276;10.528;2022-11-18T00:38:21;24.90;;;15.70;;
48935;SDS011;34745;52.276;10.528;2022-11-18T00:40:48;22.20;;;14.90;;
48935;SDS011;34745;52.276;10.528;2022-11-18T00:43:16;25.17;;;15.80;;
48935;SDS011;34745;52.276;10.528;2022-11-18T00:45:43;21.23;;;15.27;;
48935;SDS011;34745;52.276;10.528;2022-11-18T00:48:10;22.67;;;15.33;;
48935;SDS011;34745;52.276;10.528;2022-11-18T00:50:38;21.73;;;15.07;;
48935;SDS011;34745;52.276;10.528;2022-11-18T00:53:05;25.73;;;16.77;;
48935;SDS011;34745;52.276;10.528;2022-11-18T00:55:31;24.10;;;15.97;;
48935;SDS011;34745;52.276;10.528;2022-11-18T00:57:58;25.33;;;15.53;;
48935;SDS011;34745;52.276;10.528;2022-11-18T01:00:27;23.13;;;16.20;;
48935;SDS011;34745;52.276;10.528;2022-11-18T01:02:54;23.27;;;16.63;;
48935;SDS011;34745;52.276;10.528;2022-11-18T01:05:21;23.23;;;16.33;;
48935;SDS011;34745;52.276;10.528;2022-11-18T01:07:48;22.23;;;15.70;;
48935;SDS011;34745;52.276;10.528;2022-11-18T01:10:15;26.13;;;16.57;;
48935;SDS011;34745;52.276;10.528;2022-11-18T01:12:42;23.67;;;16.90;;
48935;SDS011;34745;52.276;10.528;2022-11-18T01:15:29;25.53;;;16.90;;
48935;SDS011;34745;52.276;10.528;2022-11-18T01:18:02;22.27;;;16.37;;
48935;SDS011;34745;52.276;10.528;2022-11-18T01:20:30;23.60;;;15.97;;
48935;SDS011;34745;52.276;10.528;2022-11-18T01:22:57;24.40;;;16.70;;
48935;SDS011;34745;52.276;10.528;2022-11-18T01:25:24;22.03;;;15.17;;
48935;SDS011;34745;52.276;10.528;2022-11-18T01:27:52;20.87;;;15.17;;
48935;SDS011;34745;52.276;10.528;2022-11-18T01:30:19;23.53;;;15.17;;
48935;SDS011;34745;52.276;10.528;2022-11-18T01:32:48;22.53;;;15.90;;
48935;SDS011;34745;52.276;10.528;2022-11-18T01:35:15;23.00;;;15.43;;
48935;SDS011;34745;52.276;10.528;2022-11-18T01:37:42;23.20;;;15.03;;
48935;SDS011;34745;52.276;10.528;2022-11-18T01:40:10;19.60;;;15.07;;
48935;SDS011;34745;52.276;10.528;2022-11-18T01:42:37;22.07;;;15.60;;
48935;SDS011;34745;52.276;10.528;2022-11-18T01:45:06;23.17;;;15.73;;
48935;SDS011;34745;52.276;10.528;2022-11-18T01:47:47;20.73;;;14.93;;
48935;SDS011;34745;52.276;10.528;2022-11-18T01:50:19;23.23;;;16.30;;
48935;SDS011;34745;52.276;10.528;2022-11-18T01:52:48;23.43;;;17.10;;
48935;SDS011;34745;52.276;10.528;2022-11-18T01:55:20;24.00;;;16.57;;
48935;SDS011;34745;52.276;10.528;2022-11-18T01:57:51;22.43;;;14.93;;
48935;SDS011;34745;52.276;10.528;2022-11-18T02:00:22;20.53;;;15.60;;
48935;SDS011;34745;52.276;10.528;2022-11-18T02:02:50;21.13;;;15.87;;
48935;SDS011;34745;52.276;10.528;2022-11-18T02:05:18;24.93;;;16.27;;
48935;SDS011;34745;52.276;10.528;2022-11-18T02:07:47;23.40;;;16.87;;
48935;SDS011;34745;52.276;10.528;2022-11-18T02:10:16;28.37;;;17.23;;
48935;SDS011;34745;52.276;10.528;2022-11-18T02:12:45;25.10;;;16.30;;
48935;SDS011;34745;52.276;10.528;2022-11-18T02:15:13;24.80;;;16.73;;
48935;SDS011;34745;52.276;10.528;2022-11-18T02:17:44;24.83;;;17.37;;
48935;SDS011;34745;52.276;10.528;2022-11-18T02:20:28;23.03;;;16.47;;
48935;SDS011;34745;52.276;10.528;2022-11-18T02:23:03;24.20;;;17.13;;
48935;SDS011;34745;52.276;10.528;2022-11-18T02:26:10;22.87;;;16.77;;
48935;SDS011;34745;52.276;10.528;2022-11-18T02:29:15;24.87;;;16.87;;
48935;SDS011;34745;52.276;10.528;2022-11-18T02:31:47;25.53;;;18.47;;
48935;SDS011;34745;52.276;10.528;2022-11-18T02:34:23;25.00;;;18.10;;
48935;SDS011;34745;52.276;10.528;2022-11-18T02:36:59;25.63;;;17.67;;
48935;SDS011;34745;52.276;10.528;2022-11-18T02:39:32;26.17;;;17.93;;
48935;SDS011;34745;52.276;10.528;2022-11-18T02:42:03;25.27;;;18.00;;
48935;SDS011;34745;52.276;10.528;2022-11-18T02:44:37;31.33;;;17.80;;
48935;SDS011;34745;52.276;10.528;2022-11-18T02:47:07;25.60;;;17.80;;
48935;SDS011;34745;52.276;10.528;2022-11-18T02:49:39;27.33;;;17.93;;
48935;SDS011;34745;52.276;10.528;2022-11-18T02:52:10;29.87;;;19.50;;
48935;SDS011;34745;52.276;10.528;2022-11-18T02:54:40;26.27;;;18.93;;
48935;SDS011;34745;52.276;10.528;2022-11-18T02:57:09;30.57;;;19.73;;
48935;SDS011;34745;52.276;10.528;2022-11-18T02:59:38;30.37;;;20.23;;
48935;SDS011;34745;52.276;10.528;2022-11-18T03:02:05;29.93;;;20.03;;
48935;SDS011;34745;52.276;10.528;2022-11-18T03:04:32;32.70;;;19.93;;
48935;SDS011;34745;52.276;10.528;2022-11-18T03:07:01;31.67;;;20.00;;
48935;SDS011;34745;52.276;10.528;2022-11-18T03:09:37;30.70;;;20.47;;
48935;SDS011;34745;52.276;10.528;2022-11-18T03:12:08;31.33;;;20.40;;
48935;SDS011;34745;52.276;10.528;2022-11-18T03:14:45;30.40;;;19.77;;
48935;SDS011;34745;52.276;10.528;2022-11-18T03:17:18;33.23;;;21.13;;
48935;SDS011;34745;52.276;10.528;2022-11-18T03:19:57;30.73;;;20.53;;
48935;SDS011;34745;52.276;10.528;2022-11-18T03:22:36;34.27;;;20.67;;
48935;SDS011;34745;52.276;10.528;2022-11-18T03:25:08;31.87;;;20.40;;
48935;SDS011;34745;52.276;10.528;2022-11-18T03:27:37;31.53;;;20.00;;
48935;SDS011;34745;52.276;10.528;2022-11-18T03:30:14;31.17;;;21.90;;
48935;SDS011;34745;52.276;10.528;2022-11-18T03:32:44;32.10;;;21.10;;
48935;SDS011;34745;52.276;10.528;2022-11-18T03:35:19;29.70;;;20.43;;
48935;SDS011;34745;52.276;10.528;2022-11-18T03:37:48;33.60;;;21.43;;
48935;SDS011;34745;52.276;10.528;2022-11-18T03:40:21;30.57;;;20.63;;
48935;SDS011;34745;52.276;10.528;2022-11-18T03:42:52;32.93;;;21.97;;
48935;SDS011;34745;52.276;10.528;2022-11-18T03:45:27;32.77;;;21.17;;
48935;SDS011;34745;52.276;10.528;2022-11-18T03:47:59;38.33;;;21.70;;
48935;SDS011;34745;52.276;10.528;2022-11-18T03:50:30;37.47;;;22.13;;
48935;SDS011;34745;52.276;10.528;2022-11-18T03:53:00;31.47;;;21.13;;
48935;SDS011;34745;52.276;10.528;2022-11-18T03:55:30;36.03;;;21.67;;
48935;SDS011;34745;52.276;10.528;2022-11-18T03:58:01;35.70;;;21.53;;
48935;SDS011;34745;52.276;10.528;2022-11-18T04:00:35;33.57;;;20.47;;
48935;SDS011;34745;52.276;10.528;2022-11-18T04:03:06;31.37;;;20.97;;
48935;SDS011;34745;52.276;10.528;2022-11-18T04:05:35;34.67;;;21.27;;
48935;SDS011;34745;52.276;10.528;2022-11-18T04:08:05;34.70;;;21.53;;
48935;SDS011;34745;52.276;10.528;2022-11-18T04:10:36;35.47;;;21.73;;
48935;SDS011;34745;52.276;10.528;2022-11-18T04:13:08;37.17;;;21.93;;
48935;SDS011;34745;52.276;10.528;2022-11-18T04:15:41;38.30;;;21.70;;
48935;SDS011;34745;52.276;10.528;2022-11-18T04:18:08;33.17;;;21.33;;
48935;SDS011;34745;52.276;10.528;2022-11-18T04:20:36;35.97;;;22.07;;
48935;SDS011;34745;52.276;10.528;2022-11-18T04:23:04;34.50;;;22.10;;
48935;SDS011;34745;52.276;10.528;2022-11-18T04:25:32;33.63;;;20.40;;
48935;SDS011;34745;52.276;10.528;2022-11-18T04:27:59;34.87;;;22.07;;
48935;SDS011;34745;52.276;10.528;2022-11-18T04:30:27;36.97;;;21.73;;
48935;SDS011;34745;52.276;10.528;2022-11-18T04:32:55;35.30;;;21.97;;
48935;SDS011;34745;52.276;10.528;2022-11-18T04:35:23;35.60;;;22.13;;
48935;SDS011;34745;52.276;10.528;2022-11-18T04:37:50;33.73;;;21.30;;
48935;SDS011;34745;52.276;10.528;2022-11-18T04:40:17;29.27;;;19.27;;
48935;SDS011;34745;52.276;10.528;2022-11-18T04:42:44;37.43;;;22.67;;
48935;SDS011;34745;52.276;10.528;2022-11-18T04:45:11;39.57;;;22.23;;
48935;SDS011;34745;52.276;10.528;2022-11-18T04:47:38;36.17;;;22.47;;
48935;SDS011;34745;52.276;10.528;2022-11-18T04:50:07;33.97;;;21.43;;
48935;SDS011;34745;52.276;10.528;2022-11-18T04:52:34;35.23;;;21.27;;
48935;SDS011;34745;52.276;10.528;2022-11-18T04:55:02;32.80;;;20.50;;
48935;SDS011;34745;52.276;10.528;2022-11-18T04:57:29;33.43;;;20.63;;
48935;SDS011;34745;52.276;10.528;2022-11-18T04:59:56;34.63;;;21.70;;
48935;SDS011;34745;52.276;10.528;2022-11-18T05:02:23;32.33;;;20.23;;
48935;SDS011;34745;52.276;10.528;2022-11-18T05:04:50;34.47;;;21.10;;
48935;SDS011;34745;52.276;10.528;2022-11-18T05:07:18;33.73;;;21.87;;
48935;SDS011;34745;52.276;10.528;2022-11-18T05:09:46;30.73;;;20.30;;
48935;SDS011;34745;52.276;10.528;2022-11-18T05:12:13;33.47;;;20.13;;
48935;SDS011;34745;52.276;10.528;2022-11-18T05:15:00;33.40;;;19.80;;
48935;SDS011;34745;52.276;10.528;2022-11-18T05:17:27;31.50;;;19.63;;
48935;SDS011;34745;52.276;10.528;2022-11-18T05:19:54;32.00;;;19.13;;
48935;SDS011;34745;52.276;10.528;2022-11-18T05:22:22;34.23;;;21.47;;
48935;SDS011;34745;52.276;10.528;2022-11-18T05:24:49;31.47;;;20.53;;
48935;SDS011;34745;52.276;10.528;2022-11-18T05:27:16;34.00;;;20.83;;
48935;SDS011;34745;52.276;10.528;2022-11-18T05:29:44;33.70;;;21.53;;
48935;SDS011;34745;52.276;10.528;2022-11-18T05:32:10;36.47;;;22.30;;
48935;SDS011;34745;52.276;10.528;2022-11-18T05:34:39;35.13;;;20.83;;
48935;SDS011;34745;52.276;10.528;2022-11-18T05:37:07;32.77;;;21.10;;
48935;SDS011;34745;52.276;10.528;2022-11-18T05:39:36;34.57;;;21.20;;
48935;SDS011;34745;52.276;10.528;2022-11-18T05:42:03;32.30;;;20.73;;
48935;SDS011;34745;52.276;10.528;2022-11-18T05:44:49;36.23;;;20.70;;
48935;SDS011;34745;52.276;10.528;2022-11-18T05:47:23;35.03;;;21.07;;
48935;SDS011;34745;52.276;10.528;2022-11-18T05:49:51;32.90;;;20.40;;
48935;SDS011;34745;52.276;10.528;2022-11-18T05:52:17;35.37;;;21.70;;
48935;SDS011;34745;52.276;10.528;2022-11-18T05:54:47;37.63;;;22.07;;
48935;SDS011;34745;52.276;10.528;2022-11-18T05:57:15;33.27;;;20.73;;
48935;SDS011;34745;52.276;10.528;2022-11-18T05:59:43;34.30;;;21.37;;
48935;SDS011;34745;52.276;10.528;2022-11-18T06:02:10;31.30;;;19.93;;
48935;SDS011;34745;52.276;10.528;2022-11-18T06:04:42;36.77;;;20.63;;
48935;SDS011;34745;52.276;10.528;2022-11-18T06:07:13;32.90;;;20.30;;
48935;SDS011;34745;52.276;10.528;2022-11-18T06:09:47;37.97;;;21.30;;
48935;SDS011;34745;52.276;10.528;2022-11-18T06:12:17;33.83;;;20.13;;
48935;SDS011;34745;52.276;10.528;2022-11-18T06:14:47;34.20;;;20.17;;
48935;SDS011;34745;52.276;10.528;2022-11-18T06:17:21;35.27;;;21.33;;
48935;SDS011;34745;52.276;10.528;2022-11-18T06:19:53;34.80;;;20.97;;
48935;SDS011;34745;52.276;10.528;2022-11-18T06:22:21;35.23;;;21.30;;
48935;SDS011;34745;52.276;10.528;2022-11-18T06:24:50;38.17;;;23.40;;
48935;SDS011;34745;52.276;10.528;2022-11-18T06:27:17;33.50;;;21.93;;
48935;SDS011;34745;52.276;10.528;2022-11-18T06:29:44;34.93;;;21.70;;
48935;SDS011;34745;52.276;10.528;2022-11-18T06:32:11;40.87;;;23.30;;
48935;SDS011;34745;52.276;10.528;2022-11-18T06:34:39;38.63;;;22.53;;
48935;SDS011;34745;52.276;10.528;2022-11-18T06:37:11;42.47;;;23.03;;
48935;SDS011;34745;52.276;10.528;2022-11-18T06:39:38;39.53;;;22.80;;
48935;SDS011;34745;52.276;10.528;2022-11-18T06:42:07;37.60;;;22.93;;
48935;SDS011;34745;52.276;10.528;2022-11-18T06:44:34;41.03;;;23.57;;
48935;SDS011;34745;52.276;10.528;2022-11-18T06:47:02;44.43;;;23.63;;
48935;SDS011;34745;52.276;10.528;2022-11-18T06:49:29;39.67;;;23.10;;
48935;SDS011;34745;52.276;10.528;2022-11-18T06:51:56;39.03;;;22.73;;
48935;SDS011;34745;52.276;10.528;2022-11-18T06:54:23;38.93;;;22.17;;
48935;SDS011;34745;52.276;10.528;2022-11-18T06:56:50;39.20;;;22.57;;
48935;SDS011;34745;52.276;10.528;2022-11-18T06:59:18;36.53;;;22.07;;
48935;SDS011;34745;52.276;10.528;2022-11-18T07:01:49;35.60;;;22.10;;
48935;SDS011;34745;52.276;10.528;2022-11-18T07:04:19;37.00;;;22.37;;
48935;SDS011;34745;52.276;10.528;2022-11-18T07:06:46;37.57;;;22.80;;
48935;SDS011;34745;52.276;10.528;2022-11-18T07:09:13;35.80;;;21.53;;
48935;SDS011;34745;52.276;10.528;2022-11-18T07:11:41;37.00;;;20.83;;
48935;SDS011;34745;52.276;10.528;2022-11-18T07:14:08;37.57;;;22.17;;
48935;SDS011;34745;52.276;10.528;2022-11-18T07:16:37;38.40;;;22.37;;
48935;SDS011;34745;52.276;10.528;2022-11-18T07:19:07;38.53;;;21.53;;
48935;SDS011;34745;52.276;10.528;2022-11-18T07:21:34;36.67;;;21.50;;
48935;SDS011;34745;52.276;10.528;2022-11-18T07:24:03;34.87;;;21.57;;
48935;SDS011;34745;52.276;10.528;2022-11-18T07:26:31;32.13;;;19.40;;
48935;SDS011;34745;52.276;10.528;2022-11-18T07:28:58;32.77;;;20.63;;
48935;SDS011;34745;52.276;10.528;2022-11-18T07:31:25;35.43;;;21.63;;
48935;SDS011;34745;52.276;10.528;2022-11-18T07:33:53;30.50;;;20.77;;
48935;SDS011;34745;52.276;10.528;2022-11-18T07:36:21;31.83;;;20.83;;
48935;SDS011;34745;52.276;10.528;2022-11-18T07:38:50;34.13;;;21.47;;
48935;SDS011;34745;52.276;10.528;2022-11-18T07:41:18;33.53;;;20.90;;
48935;SDS011;34745;52.276;10.528;2022-11-18T07:43:46;32.53;;;21.57;;
48935;SDS011;34745;52.276;10.528;2022-11-18T07:46:16;38.90;;;22.07;;
48935;SDS011;34745;52.276;10.528;2022-11-18T07:48:46;39.03;;;22.03;;
48935;SDS011;34745;52.276;10.528;2022-11-18T07:51:15;38.73;;;22.73;;
48935;SDS011;34745;52.276;10.528;2022-11-18T07:53:44;34.97;;;21.90;;
48935;SDS011;34745;52.276;10.528;2022-11-18T07:56:11;36.60;;;21.97;;
48935;SDS011;34745;52.276;10.528;2022-11-18T07:58:39;34.00;;;21.83;;
48935;SDS011;34745;52.276;10.528;2022-11-18T08:01:07;32.37;;;21.57;;
48935;SDS011;34745;52.276;10.528;2022-11-18T08:03:36;32.33;;;20.03;;
48935;SDS011;34745;52.276;10.528;2022-11-18T08:06:04;34.70;;;20.77;;
48935;SDS011;34745;52.276;10.528;2022-11-18T08:08:34;32.53;;;20.80;;
48935;SDS011;34745;52.276;10.528;2022-11-18T08:11:02;35.63;;;21.50;;
48935;SDS011;34745;52.276;10.528;2022-11-18T08:13:31;35.80;;;23.07;;
48935;SDS011;34745;52.276;10.528;2022-11-18T08:15:58;34.33;;;21.93;;
48935;SDS011;34745;52.276;10.528;2022-11-18T08:18:26;35.90;;;22.17;;
48935;SDS011;34745;52.276;10.528;2022-11-18T08:20:54;41.40;;;25.53;;
48935;SDS011;34745;52.276;10.528;2022-11-18T08:23:21;39.83;;;24.37;;
48935;SDS011;34745;52.276;10.528;2022-11-18T08:26:01;41.00;;;23.73;;
48935;SDS011;34745;52.276;10.528;2022-11-18T08:28:30;36.90;;;22.90;;
48935;SDS011;34745;52.276;10.528;2022-11-18T08:30:57;37.07;;;21.87;;
48935;SDS011;34745;52.276;10.528;2022-11-18T08:33:24;35.27;;;21.70;;
48935;SDS011;34745;52.276;10.528;2022-11-18T08:35:54;32.83;;;21.27;;
48935;SDS011;34745;52.276;10.528;2022-11-18T08:38:22;32.63;;;22.13;;
48935;SDS011;34745;52.276;10.528;2022-11-18T08:40:49;31.73;;;21.03;;
48935;SDS011;34745;52.276;10.528;2022-11-18T08:43:17;35.67;;;21.20;;
48935;SDS011;34745;52.276;10.528;2022-11-18T08:45:44;28.77;;;20.80;;
48935;SDS011;34745;52.276;10.528;2022-11-18T08:48:11;32.20;;;20.50;;
48935;SDS011;34745;52.276;10.528;2022-11-18T08:50:38;30.93;;;20.73;;
48935;SDS011;34745;52.276;10.528;2022-11-18T08:53:05;31.73;;;20.87;;
48935;SDS011;34745;52.276;10.528;2022-11-18T08:55:32;33.47;;;20.03;;
48935;SDS011;34745;52.276;10.528;2022-11-18T08:57:59;24.77;;;17.43;;
48935;SDS011;34745;52.276;10.528;2022-11-18T09:00:27;24.90;;;17.67;;
48935;SDS011;34745;52.276;10.528;2022-11-18T09:02:54;25.63;;;17.20;;
48935;SDS011;34745;52.276;10.528;2022-11-18T09:05:21;26.00;;;17.17;;
48935;SDS011;34745;52.276;10.528;2022-11-18T09:07:48;24.50;;;17.10;;
48935;SDS011;34745;52.276;10.528;2022-11-18T09:10:15;30.30;;;18.07;;
48935;SDS011;34745;52.276;10.528;2022-11-18T09:12:42;27.60;;;17.93;;
48935;SDS011;34745;52.276;10.528;2022-11-18T09:15:09;28.50;;;17.53;;
48935;SDS011;34745;52.276;10.528;2022-11-18T09:17:41;27.17;;;18.00;;
48935;SDS011;34745;52.276;10.528;2022-11-18T09:20:08;27.60;;;18.50;;
48935;SDS011;34745;52.276;10.528;2022-11-18T09:22:35;28.90;;;19.17;;
48935;SDS011;34745;52.276;10.528;2022-11-18T09:25:03;26.33;;;18.60;;
48935;SDS011;34745;52.276;10.528;2022-11-18T09:27:30;28.93;;;20.33;;
48935;SDS011;34745;52.276;10.528;2022-11-18T09:29:57;40.67;;;23.90;;
48935;SDS011;34745;52.276;10.528;2022-11-18T09:32:24;41.87;;;25.80;;
48935;SDS011;34745;52.276;10.528;2022-11-18T09:34:52;32.90;;;20.37;;
48935;SDS011;34745;52.276;10.528;2022-11-18T09:37:19;31.27;;;19.47;;
48935;SDS011;34745;52.276;10.528;2022-11-18T09:39:48;29.90;;;19.23;;
48935;SDS011;34745;52.276;10.528;2022-11-18T09:42:25;31.13;;;20.40;;
48935;SDS011;34745;52.276;10.528;2022-11-18T09:45:06;35.00;;;21.20;;
48935;SDS011;34745;52.276;10.528;2022-11-18T09:47:49;36.23;;;21.60;;
48935;SDS011;34745;52.276;10.528;2022-11-18T09:50:19;31.00;;;21.70;;
48935;SDS011;34745;52.276;10.528;2022-11-18T09:53:09;33.97;;;22.27;;
48935;SDS011;34745;52.276;10.528;2022-11-18T09:55:43;35.00;;;23.23;;
48935;SDS011;34745;52.276;10.528;2022-11-18T09:58:11;39.77;;;25.57;;
48935;SDS011;34745;52.276;10.528;2022-11-18T10:00:43;40.67;;;26.20;;
48935;SDS011;34745;52.276;10.528;2022-11-18T10:03:12;39.77;;;26.37;;
48935;SDS011;34745;52.276;10.528;2022-11-18T10:05:48;42.80;;;26.03;;
48935;SDS011;34745;52.276;10.528;2022-11-18T10:08:20;40.00;;;27.37;;
48935;SDS011;34745;52.276;10.528;2022-11-18T10:10:53;40.53;;;26.50;;
48935;SDS011;34745;52.276;10.528;2022-11-18T10:13:26;39.90;;;26.63;;
48935;SDS011;34745;52.276;10.528;2022-11-18T10:16:04;36.27;;;25.73;;
48935;SDS011;34745;52.276;10.528;2022-11-18T10:18:46;39.87;;;25.03;;
48935;SDS011;34745;52.276;10.528;2022-11-18T10:21:30;38.57;;;25.33;;
48935;SDS011;34745;52.276;10.528;2022-11-18T10:24:09;39.67;;;25.33;;
48935;SDS011;34745;52.276;10.528;2022-11-18T10:26:41;41.13;;;26.37;;
48935;SDS011;34745;52.276;10.528;2022-11-18T10:29:08;43.20;;;25.67;;
48935;SDS011;34745;52.276;10.528;2022-11-18T10:31:36;41.57;;;25.90;;
48935;SDS011;34745;52.276;10.528;2022-11-18T10:34:04;35.87;;;24.03;;
48935;SDS011;34745;52.276;10.528;2022-11-18T10:36:32;38.07;;;24.07;;
48935;SDS011;34745;52.276;10.528;2022-11-18T10:39:06;34.87;;;23.83;;
48935;SDS011;34745;52.276;10.528;2022-11-18T10:41:38;37.60;;;24.37;;
48935;SDS011;34745;52.276;10.528;2022-11-18T10:47:15;36.40;;;24.40;;
48935;SDS011;34745;52.276;10.528;2022-11-18T10:49:48;33.90;;;22.37;;
48935;SDS011;34745;52.276;10.528;2022-11-18T10:52:17;34.87;;;22.77;;
48935;SDS011;34745;52.276;10.528;2022-11-18T10:54:44;34.23;;;23.10;;
48935;SDS011;34745;52.276;10.528;2022-11-18T10:57:14;34.17;;;22.67;;
48935;SDS011;34745;52.276;10.528;2022-11-18T10:59:45;34.13;;;22.47;;
48935;SDS011;34745;52.276;10.528;2022-11-18T11:02:17;32.73;;;22.00;;
48935;SDS011;34745;52.276;10.528;2022-11-18T11:04:46;33.87;;;22.90;;
48935;SDS011;34745;52.276;10.528;2022-11-18T11:07:15;36.43;;;23.03;;
48935;SDS011;34745;52.276;10.528;2022-11-18T11:10:00;34.80;;;23.50;;
48935;SDS011;34745;52.276;10.528;2022-11-18T11:12:43;32.77;;;22.30;;
48935;SDS011;34745;52.276;10.528;2022-11-18T11:15:15;35.93;;;23.20;;
48935;SDS011;34745;52.276;10.528;2022-11-18T11:17:47;35.83;;;23.80;;
48935;SDS011;34745;52.276;10.528;2022-11-18T11:20:37;35.07;;;23.87;;
48935;SDS011;34745;52.276;10.528;2022-11-18T11:23:08;33.93;;;23.97;;
48935;SDS011;34745;52.276;10.528;2022-11-18T11:25:38;35.90;;;24.50;;
48935;SDS011;34745;52.276;10.528;2022-11-18T11:28:29;37.40;;;25.67;;
48935;SDS011;34745;52.276;10.528;2022-11-18T11:31:02;37.07;;;25.03;;
48935;SDS011;34745;52.276;10.528;2022-11-18T11:33:37;39.33;;;26.07;;
48935;SDS011;34745;52.276;10.528;2022-11-18T11:36:15;38.63;;;23.53;;
48935;SDS011;34745;52.276;10.528;2022-11-18T11:38:56;35.93;;;24.03;;
48935;SDS011;34745;52.276;10.528;2022-11-18T11:41:34;32.67;;;22.30;;
48935;SDS011;34745;52.276;10.528;2022-11-18T11:44:22;34.87;;;23.37;;
48935;SDS011;34745;52.276;10.528;2022-11-18T11:47:00;34.03;;;22.50;;
48935;SDS011;34745;52.276;10.528;2022-11-18T11:49:57;32.10;;;20.67;;
48935;SDS011;34745;52.276;10.528;2022-11-18T11:52:31;30.70;;;21.30;;
48935;SDS011;34745;52.276;10.528;2022-11-18T11:55:09;34.67;;;21.40;;
48935;SDS011;34745;52.276;10.528;2022-11-18T11:57:47;33.40;;;21.30;;
48935;SDS011;34745;52.276;10.528;2022-11-18T12:00:25;35.27;;;21.47;;
48935;SDS011;34745;52.276;10.528;2022-11-18T12:03:03;31.57;;;21.83;;
48935;SDS011;34745;52.276;10.528;2022-11-18T12:05:40;33.53;;;21.90;;
48935;SDS011;34745;52.276;10.528;2022-11-18T12:08:08;31.90;;;22.30;;
48935;SDS011;34745;52.276;10.528;2022-11-18T12:10:43;44.70;;;22.60;;
48935;SDS011;34745;52.276;10.528;2022-11-18T12:13:16;33.60;;;22.63;;
48935;SDS011;34745;52.276;10.528;2022-11-18T12:16:03;31.07;;;22.13;;
48935;SDS011;34745;52.276;10.528;2022-11-18T12:18:40;34.30;;;22.00;;
48935;SDS011;34745;52.276;10.528;2022-11-18T12:24:24;30.10;;;20.70;;
48935;SDS011;34745;52.276;10.528;2022-11-18T12:26:57;31.67;;;21.13;;
48935;SDS011;34745;52.276;10.528;2022-11-18T12:29:26;31.30;;;21.13;;
48935;SDS011;34745;52.276;10.528;2022-11-18T12:32:02;29.20;;;20.33;;
48935;SDS011;34745;52.276;10.528;2022-11-18T12:34:39;34.10;;;21.47;;
48935;SDS011;34745;52.276;10.528;2022-11-18T12:40:06;29.10;;;20.60;;
48935;SDS011;34745;52.276;10.528;2022-11-18T12:42:43;36.40;;;23.70;;
48935;SDS011;34745;52.276;10.528;2022-11-18T12:48:28;31.90;;;22.40;;
48935;SDS011;34745;52.276;10.528;2022-11-18T12:51:00;33.43;;;24.10;;
48935;SDS011;34745;52.276;10.528;2022-11-18T12:53:36;31.60;;;24.10;;
48935;SDS011;34745;52.276;10.528;2022-11-18T12:56:09;35.53;;;26.07;;
48935;SDS011;34745;52.276;10.528;2022-11-18T12:58:38;50.37;;;34.23;;
48935;SDS011;34745;52.276;10.528;2022-11-18T13:01:11;35.17;;;25.60;;
48935;SDS011;34745;52.276;10.528;2022-11-18T13:03:39;32.77;;;23.37;;
48935;SDS011;34745;52.276;10.528;2022-11-18T13:06:11;34.80;;;22.83;;
48935;SDS011;34745;52.276;10.528;2022-11-18T13:08:48;31.17;;;22.67;;
48935;SDS011;34745;52.276;10.528;2022-11-18T13:11:17;29.63;;;21.37;;
48935;SDS011;34745;52.276;10.528;2022-11-18T13:14:05;29.93;;;22.10;;
48935;SDS011;34745;52.276;10.528;2022-11-18T13:16:57;35.30;;;24.10;;
48935;SDS011;34745;52.276;10.528;2022-11-18T13:19:52;32.17;;;23.47;;
48935;SDS011;34745;52.276;10.528;2022-11-18T13:22:21;34.87;;;24.10;;
48935;SDS011;34745;52.276;10.528;2022-11-18T13:25:20;34.23;;;24.23;;
48935;SDS011;34745;52.276;10.528;2022-11-18T13:27:50;37.60;;;27.10;;
48935;SDS011;34745;52.276;10.528;2022-11-18T13:30:25;41.23;;;29.40;;
48935;SDS011;34745;52.276;10.528;2022-11-18T13:32:53;48.30;;;33.10;;
48935;SDS011;34745;52.276;10.528;2022-11-18T13:35:24;45.43;;;30.30;;
48935;SDS011;34745;52.276;10.528;2022-11-18T13:37:55;47.43;;;32.23;;
48935;SDS011;34745;52.276;10.528;2022-11-18T13:40:24;43.23;;;30.00;;
48935;SDS011;34745;52.276;10.528;2022-11-18T13:42:52;48.07;;;29.87;;
48935;SDS011;34745;52.276;10.528;2022-11-18T13:45:19;48.80;;;31.90;;
48935;SDS011;34745;52.276;10.528;2022-11-18T13:47:51;48.53;;;31.30;;
48935;SDS011;34745;52.276;10.528;2022-11-18T13:50:21;57.57;;;38.10;;
48935;SDS011;34745;52.276;10.528;2022-11-18T13:52:56;67.77;;;40.83;;
48935;SDS011;34745;52.276;10.528;2022-11-18T13:55:29;52.77;;;34.17;;
48935;SDS011;34745;52.276;10.528;2022-11-18T13:58:00;54.03;;;35.20;;
48935;SDS011;34745;52.276;10.528;2022-11-18T14:00:30;48.73;;;32.20;;
48935;SDS011;34745;52.276;10.528;2022-11-18T14:03:01;43.63;;;29.50;;
48935;SDS011;34745;52.276;10.528;2022-11-18T14:05:30;48.63;;;30.53;;
48935;SDS011;34745;52.276;10.528;2022-11-18T14:08:02;43.73;;;29.57;;
48935;SDS011;34745;52.276;10.528;2022-11-18T14:10:32;44.83;;;29.80;;
48935;SDS011;34745;52.276;10.528;2022-11-18T14:13:13;45.37;;;29.50;;
48935;SDS011;34745;52.276;10.528;2022-11-18T14:15:44;49.07;;;32.70;;
48935;SDS011;34745;52.276;10.528;2022-11-18T14:18:17;48.27;;;31.07;;
48935;SDS011;34745;52.276;10.528;2022-11-18T14:20:48;48.90;;;31.47;;
48935;SDS011;34745;52.276;10.528;2022-11-18T14:23:17;53.63;;;33.60;;
48935;SDS011;34745;52.276;10.528;2022-11-18T14:25:51;54.60;;;31.90;;
48935;SDS011;34745;52.276;10.528;2022-11-18T14:28:19;45.90;;;30.77;;
48935;SDS011;34745;52.276;10.528;2022-11-18T14:30:55;48.07;;;31.33;;
48935;SDS011;34745;52.276;10.528;2022-11-18T14:33:33;46.67;;;30.60;;
48935;SDS011;34745;52.276;10.528;2022-11-18T14:36:02;44.73;;;29.40;;
48935;SDS011;34745;52.276;10.528;2022-11-18T14:38:38;44.73;;;29.50;;
48935;SDS011;34745;52.276;10.528;2022-11-18T14:41:29;43.47;;;28.93;;
48935;SDS011;34745;52.276;10.528;2022-11-18T14:44:14;43.07;;;29.17;;